sensor_id;sensor_type;location;lat;lon;timestamp;temperature;humidity
1878;DHT22;939;51.426;6.972;2023-04-24T00:01:38;12.20;99.90
1878;DHT22;939;51.426;6.972;2023-04-24T00:04:05;12.10;99.90
1878;DHT22;939;51.426;6.972;2023-04-24T00:06:40;12.00;99.90
1878;DHT22;939;51.426;6.972;2023-04-24T00:09:08;12.00;99.90
1878;DHT22;939;51.426;6.972;2023-04-24T00:11:36;12.00;99.90
1878;DHT22;939;51.426;6.972;2023-04-24T00:14:03;12.00;99.90
1878;DHT22;939;51.426;6.972;2023-04-24T00:16:32;12.00;99.90
1878;DHT22;939;51.426;6.972;2023-04-24T00:18:59;12.00;99.90
1878;DHT22;939;51.426;6.972;2023-04-24T00:21:27;12.00;99.90
1878;DHT22;939;51.426;6.972;2023-04-24T00:23:56;12.00;99.90
1878;DHT22;939;51.426;6.972;2023-04-24T00:26:24;11.80;99.90
1878;DHT22;939;51.426;6.972;2023-04-24T00:28:51;11.80;99.90
1878;DHT22;939;51.426;6.972;2023-04-24T00:31:19;11.90;99.90
1878;DHT22;939;51.426;6.972;2023-04-24T00:33:46;11.90;99.90
1878;DHT22;939;51.426;6.972;2023-04-24T00:36:13;11.90;99.90
1878;DHT22;939;51.426;6.972;2023-04-24T00:38:40;11.90;99.90
1878;DHT22;939;51.426;6.972;2023-04-24T00:41:08;11.90;99.90
1878;DHT22;939;51.426;6.972;2023-04-24T00:43:35;11.90;99.90
1878;DHT22;939;51.426;6.972;2023-04-24T00:46:02;11.80;99.90
1878;DHT22;939;51.426;6.972;2023-04-24T00:48:30;11.80;99.90
1878;DHT22;939;51.426;6.972;2023-04-24T00:50:58;11.80;99.90
1878;DHT22;939;51.426;6.972;2023-04-24T00:53:24;11.80;99.90
1878;DHT22;939;51.426;6.972;2023-04-24T00:55:52;11.60;99.90
1878;DHT22;939;51.426;6.972;2023-04-24T00:58:20;11.50;99.90
1878;DHT22;939;51.426;6.972;2023-04-24T01:00:49;11.40;99.90
1878;DHT22;939;51.426;6.972;2023-04-24T01:03:18;11.50;99.90
1878;DHT22;939;51.426;6.972;2023-04-24T01:05:47;11.50;99.90
1878;DHT22;939;51.426;6.972;2023-04-24T01:08:14;11.50;99.90
1878;DHT22;939;51.426;6.972;2023-04-24T01:10:42;11.40;99.90
1878;DHT22;939;51.426;6.972;2023-04-24T01:13:14;11.40;99.90
1878;DHT22;939;51.426;6.972;2023-04-24T01:15:49;11.40;99.90
1878;DHT22;939;51.426;6.972;2023-04-24T01:18:18;11.40;99.90
1878;DHT22;939;51.426;6.972;2023-04-24T01:20:46;11.30;99.90
1878;DHT22;939;51.426;6.972;2023-04-24T01:23:17;11.20;99.90
1878;DHT22;939;51.426;6.972;2023-04-24T01:25:44;11.30;99.90
1878;DHT22;939;51.426;6.972;2023-04-24T01:28:12;11.20;99.90
1878;DHT22;939;51.426;6.972;2023-04-24T01:30:40;11.20;99.90
1878;DHT22;939;51.426;6.972;2023-04-24T01:33:07;11.20;99.90
1878;DHT22;939;51.426;6.972;2023-04-24T01:35:40;11.10;99.90
1878;DHT22;939;51.426;6.972;2023-04-24T01:38:07;10.90;99.90
1878;DHT22;939;51.426;6.972;2023-04-24T01:40:36;10.90;99.90
1878;DHT22;939;51.426;6.972;2023-04-24T01:43:03;10.80;99.90
1878;DHT22;939;51.426;6.972;2023-04-24T01:45:30;10.90;99.90
1878;DHT22;939;51.426;6.972;2023-04-24T01:47:57;10.90;99.90
1878;DHT22;939;51.426;6.972;2023-04-24T01:50:27;10.80;99.90
1878;DHT22;939;51.426;6.972;2023-04-24T01:52:54;10.90;99.90
1878;DHT22;939;51.426;6.972;2023-04-24T01:55:21;10.90;99.90
1878;DHT22;939;51.426;6.972;2023-04-24T01:57:50;10.70;99.90
1878;DHT22;939;51.426;6.972;2023-04-24T02:00:18;10.80;99.90
1878;DHT22;939;51.426;6.972;2023-04-24T02:02:45;10.60;99.90
1878;DHT22;939;51.426;6.972;2023-04-24T02:05:12;10.70;99.90
1878;DHT22;939;51.426;6.972;2023-04-24T02:07:39;10.70;99.90
1878;DHT22;939;51.426;6.972;2023-04-24T02:10:09;10.70;99.90
1878;DHT22;939;51.426;6.972;2023-04-24T02:12:36;10.60;99.90
1878;DHT22;939;51.426;6.972;2023-04-24T02:15:08;10.60;99.90
1878;DHT22;939;51.426;6.972;2023-04-24T02:17:36;10.50;99.90
1878;DHT22;939;51.426;6.972;2023-04-24T02:20:03;10.40;99.90
1878;DHT22;939;51.426;6.972;2023-04-24T02:22:30;10.40;99.90
1878;DHT22;939;51.426;6.972;2023-04-24T02:24:57;10.40;99.90
1878;DHT22;939;51.426;6.972;2023-04-24T02:27:24;10.40;99.90
1878;DHT22;939;51.426;6.972;2023-04-24T02:29:57;10.50;99.90
1878;DHT22;939;51.426;6.972;2023-04-24T02:32:26;10.50;99.90
1878;DHT22;939;51.426;6.972;2023-04-24T02:34:52;10.50;99.90
1878;DHT22;939;51.426;6.972;2023-04-24T02:37:22;10.60;99.90
1878;DHT22;939;51.426;6.972;2023-04-24T02:39:49;10.50;99.90
1878;DHT22;939;51.426;6.972;2023-04-24T02:42:18;10.60;99.90
1878;DHT22;939;51.426;6.972;2023-04-24T02:44:48;10.50;99.90
1878;DHT22;939;51.426;6.972;2023-04-24T02:47:18;10.60;99.90
1878;DHT22;939;51.426;6.972;2023-04-24T02:49:47;10.60;99.90
1878;DHT22;939;51.426;6.972;2023-04-24T02:52:13;10.70;99.90
1878;DHT22;939;51.426;6.972;2023-04-24T02:54:42;10.50;99.90
1878;DHT22;939;51.426;6.972;2023-04-24T02:57:12;10.50;99.90
1878;DHT22;939;51.426;6.972;2023-04-24T02:59:38;10.50;99.90
1878;DHT22;939;51.426;6.972;2023-04-24T03:02:05;10.50;99.90
1878;DHT22;939;51.426;6.972;2023-04-24T03:04:32;10.40;99.90
1878;DHT22;939;51.426;6.972;2023-04-24T03:07:01;10.50;99.90
1878;DHT22;939;51.426;6.972;2023-04-24T03:09:28;10.60;99.90
1878;DHT22;939;51.426;6.972;2023-04-24T03:11:55;10.50;99.90
1878;DHT22;939;51.426;6.972;2023-04-24T03:14:23;10.60;99.90
1878;DHT22;939;51.426;6.972;2023-04-24T03:16:50;10.70;99.90
1878;DHT22;939;51.426;6.972;2023-04-24T03:19:17;10.70;99.90
1878;DHT22;939;51.426;6.972;2023-04-24T03:21:44;10.60;99.90
1878;DHT22;939;51.426;6.972;2023-04-24T03:24:13;10.70;99.90
1878;DHT22;939;51.426;6.972;2023-04-24T03:26:40;10.60;99.90
1878;DHT22;939;51.426;6.972;2023-04-24T03:29:07;10.60;99.90
1878;DHT22;939;51.426;6.972;2023-04-24T03:31:34;10.70;99.90
1878;DHT22;939;51.426;6.972;2023-04-24T03:34:01;10.70;99.90
1878;DHT22;939;51.426;6.972;2023-04-24T03:36:27;10.70;99.90
1878;DHT22;939;51.426;6.972;2023-04-24T03:38:56;10.80;99.90
1878;DHT22;939;51.426;6.972;2023-04-24T03:41:28;10.70;99.90
1878;DHT22;939;51.426;6.972;2023-04-24T03:43:58;10.70;99.90
1878;DHT22;939;51.426;6.972;2023-04-24T03:46:25;10.60;99.90
1878;DHT22;939;51.426;6.972;2023-04-24T03:48:52;10.70;99.90
1878;DHT22;939;51.426;6.972;2023-04-24T03:51:19;10.80;99.90
1878;DHT22;939;51.426;6.972;2023-04-24T03:53:46;10.70;99.90
1878;DHT22;939;51.426;6.972;2023-04-24T03:56:13;10.80;99.90
1878;DHT22;939;51.426;6.972;2023-04-24T03:58:41;10.70;99.90
1878;DHT22;939;51.426;6.972;2023-04-24T04:01:08;10.70;99.90
1878;DHT22;939;51.426;6.972;2023-04-24T04:03:36;10.70;99.90
1878;DHT22;939;51.426;6.972;2023-04-24T04:06:03;10.80;99.90
1878;DHT22;939;51.426;6.972;2023-04-24T04:08:30;10.70;99.90
1878;DHT22;939;51.426;6.972;2023-04-24T04:10:57;10.60;99.90
1878;DHT22;939;51.426;6.972;2023-04-24T04:13:24;10.70;99.90
1878;DHT22;939;51.426;6.972;2023-04-24T04:15:52;10.80;99.90
1878;DHT22;939;51.426;6.972;2023-04-24T04:18:19;10.70;99.90
1878;DHT22;939;51.426;6.972;2023-04-24T04:20:46;10.60;99.90
1878;DHT22;939;51.426;6.972;2023-04-24T04:23:13;10.60;99.90
1878;DHT22;939;51.426;6.972;2023-04-24T04:25:40;10.60;99.90
1878;DHT22;939;51.426;6.972;2023-04-24T04:28:08;10.60;99.90
1878;DHT22;939;51.426;6.972;2023-04-24T04:30:36;10.60;99.90
1878;DHT22;939;51.426;6.972;2023-04-24T04:33:05;10.60;99.90
1878;DHT22;939;51.426;6.972;2023-04-24T04:35:32;10.50;99.90
1878;DHT22;939;51.426;6.972;2023-04-24T04:37:58;10.70;99.90
1878;DHT22;939;51.426;6.972;2023-04-24T04:40:26;10.50;99.90
1878;DHT22;939;51.426;6.972;2023-04-24T04:42:53;10.60;99.90
1878;DHT22;939;51.426;6.972;2023-04-24T04:45:21;10.60;99.90
1878;DHT22;939;51.426;6.972;2023-04-24T04:47:49;10.60;99.90
1878;DHT22;939;51.426;6.972;2023-04-24T04:50:19;10.50;99.90
1878;DHT22;939;51.426;6.972;2023-04-24T04:52:48;10.60;99.90
1878;DHT22;939;51.426;6.972;2023-04-24T04:55:15;10.60;99.90
1878;DHT22;939;51.426;6.972;2023-04-24T04:57:43;10.70;99.90
1878;DHT22;939;51.426;6.972;2023-04-24T05:00:11;10.60;99.90
1878;DHT22;939;51.426;6.972;2023-04-24T05:02:39;10.60;99.90
1878;DHT22;939;51.426;6.972;2023-04-24T05:05:07;10.70;99.90
1878;DHT22;939;51.426;6.972;2023-04-24T05:07:36;10.70;99.90
1878;DHT22;939;51.426;6.972;2023-04-24T05:10:07;10.60;99.90
1878;DHT22;939;51.426;6.972;2023-04-24T05:12:36;10.40;99.90
1878;DHT22;939;51.426;6.972;2023-04-24T05:15:04;10.50;99.90
1878;DHT22;939;51.426;6.972;2023-04-24T05:17:33;10.30;99.90
1878;DHT22;939;51.426;6.972;2023-04-24T05:20:01;10.40;99.90
1878;DHT22;939;51.426;6.972;2023-04-24T05:22:30;10.50;99.90
1878;DHT22;939;51.426;6.972;2023-04-24T05:24:59;10.50;99.90
1878;DHT22;939;51.426;6.972;2023-04-24T05:27:26;10.30;99.90
1878;DHT22;939;51.426;6.972;2023-04-24T05:29:53;10.30;99.90
1878;DHT22;939;51.426;6.972;2023-04-24T05:32:20;10.20;99.90
1878;DHT22;939;51.426;6.972;2023-04-24T05:34:47;10.10;99.90
1878;DHT22;939;51.426;6.972;2023-04-24T05:37:14;10.00;99.90
1878;DHT22;939;51.426;6.972;2023-04-24T05:39:41;10.10;99.90
1878;DHT22;939;51.426;6.972;2023-04-24T05:42:14;10.10;99.90
1878;DHT22;939;51.426;6.972;2023-04-24T05:44:41;10.00;99.90
1878;DHT22;939;51.426;6.972;2023-04-24T05:47:08;10.10;99.90
1878;DHT22;939;51.426;6.972;2023-04-24T05:49:34;10.10;99.90
1878;DHT22;939;51.426;6.972;2023-04-24T05:52:01;10.10;99.90
1878;DHT22;939;51.426;6.972;2023-04-24T05:54:29;10.00;99.90
1878;DHT22;939;51.426;6.972;2023-04-24T05:56:56;10.10;99.90
1878;DHT22;939;51.426;6.972;2023-04-24T05:59:25;10.00;99.90
1878;DHT22;939;51.426;6.972;2023-04-24T06:01:52;10.00;99.90
1878;DHT22;939;51.426;6.972;2023-04-24T06:04:25;9.90;99.90
1878;DHT22;939;51.426;6.972;2023-04-24T06:06:52;10.00;99.90
1878;DHT22;939;51.426;6.972;2023-04-24T06:09:21;9.90;99.90
1878;DHT22;939;51.426;6.972;2023-04-24T06:11:49;9.80;99.90
1878;DHT22;939;51.426;6.972;2023-04-24T06:14:18;9.90;99.90
1878;DHT22;939;51.426;6.972;2023-04-24T06:16:46;9.80;99.90
1878;DHT22;939;51.426;6.972;2023-04-24T06:19:13;9.90;99.90
1878;DHT22;939;51.426;6.972;2023-04-24T06:21:40;10.00;99.90
1878;DHT22;939;51.426;6.972;2023-04-24T06:24:09;9.90;99.90
1878;DHT22;939;51.426;6.972;2023-04-24T06:26:46;9.90;99.90
1878;DHT22;939;51.426;6.972;2023-04-24T06:29:13;9.90;99.90
1878;DHT22;939;51.426;6.972;2023-04-24T06:31:40;10.00;99.90
1878;DHT22;939;51.426;6.972;2023-04-24T06:34:08;10.00;99.90
1878;DHT22;939;51.426;6.972;2023-04-24T06:36:35;9.90;99.90
1878;DHT22;939;51.426;6.972;2023-04-24T06:39:02;10.00;99.90
1878;DHT22;939;51.426;6.972;2023-04-24T06:41:30;10.00;99.90
1878;DHT22;939;51.426;6.972;2023-04-24T06:44:05;10.00;99.90
1878;DHT22;939;51.426;6.972;2023-04-24T06:46:32;9.90;99.90
1878;DHT22;939;51.426;6.972;2023-04-24T06:49:00;10.00;99.90
1878;DHT22;939;51.426;6.972;2023-04-24T06:51:28;10.10;99.90
1878;DHT22;939;51.426;6.972;2023-04-24T06:53:56;10.00;99.90
1878;DHT22;939;51.426;6.972;2023-04-24T06:56:23;10.10;99.90
1878;DHT22;939;51.426;6.972;2023-04-24T06:58:51;9.90;99.90
1878;DHT22;939;51.426;6.972;2023-04-24T07:01:18;9.80;99.90
1878;DHT22;939;51.426;6.972;2023-04-24T07:03:47;9.70;99.90
1878;DHT22;939;51.426;6.972;2023-04-24T07:06:14;9.60;99.90
1878;DHT22;939;51.426;6.972;2023-04-24T07:08:45;9.60;99.90
1878;DHT22;939;51.426;6.972;2023-04-24T07:11:13;9.60;99.90
1878;DHT22;939;51.426;6.972;2023-04-24T07:13:39;9.80;99.90
1878;DHT22;939;51.426;6.972;2023-04-24T07:16:07;9.80;99.90
1878;DHT22;939;51.426;6.972;2023-04-24T07:18:34;9.80;99.90
1878;DHT22;939;51.426;6.972;2023-04-24T07:21:02;9.80;99.90
1878;DHT22;939;51.426;6.972;2023-04-24T07:23:28;9.80;99.90
1878;DHT22;939;51.426;6.972;2023-04-24T07:25:57;9.80;99.90
1878;DHT22;939;51.426;6.972;2023-04-24T07:28:25;9.80;99.90
1878;DHT22;939;51.426;6.972;2023-04-24T07:30:52;9.80;99.90
1878;DHT22;939;51.426;6.972;2023-04-24T07:33:20;9.80;99.90
1878;DHT22;939;51.426;6.972;2023-04-24T07:35:47;9.80;99.90
1878;DHT22;939;51.426;6.972;2023-04-24T07:38:14;9.80;99.90
1878;DHT22;939;51.426;6.972;2023-04-24T07:40:41;9.60;99.90
1878;DHT22;939;51.426;6.972;2023-04-24T07:43:11;9.70;99.90
1878;DHT22;939;51.426;6.972;2023-04-24T07:45:38;9.70;99.90
1878;DHT22;939;51.426;6.972;2023-04-24T07:48:05;9.70;99.90
1878;DHT22;939;51.426;6.972;2023-04-24T07:50:43;9.70;99.90
1878;DHT22;939;51.426;6.972;2023-04-24T07:53:11;9.90;99.90
1878;DHT22;939;51.426;6.972;2023-04-24T07:55:38;10.00;99.90
1878;DHT22;939;51.426;6.972;2023-04-24T07:58:09;9.90;99.90
1878;DHT22;939;51.426;6.972;2023-04-24T08:00:36;9.90;99.90
1878;DHT22;939;51.426;6.972;2023-04-24T08:03:03;9.80;99.90
1878;DHT22;939;51.426;6.972;2023-04-24T08:05:34;9.70;99.90
1878;DHT22;939;51.426;6.972;2023-04-24T08:08:01;9.60;99.90
1878;DHT22;939;51.426;6.972;2023-04-24T08:10:28;9.60;99.90
1878;DHT22;939;51.426;6.972;2023-04-24T08:12:55;9.60;99.90
1878;DHT22;939;51.426;6.972;2023-04-24T08:15:24;9.50;99.90
1878;DHT22;939;51.426;6.972;2023-04-24T08:17:52;9.50;99.90
1878;DHT22;939;51.426;6.972;2023-04-24T08:20:19;9.50;99.90
1878;DHT22;939;51.426;6.972;2023-04-24T08:22:46;9.40;99.90
1878;DHT22;939;51.426;6.972;2023-04-24T08:25:14;9.40;99.90
1878;DHT22;939;51.426;6.972;2023-04-24T08:27:44;9.40;99.90
1878;DHT22;939;51.426;6.972;2023-04-24T08:30:12;9.40;99.90
1878;DHT22;939;51.426;6.972;2023-04-24T08:32:40;9.30;99.90
1878;DHT22;939;51.426;6.972;2023-04-24T08:35:07;9.20;99.90
1878;DHT22;939;51.426;6.972;2023-04-24T08:37:35;9.30;99.90
1878;DHT22;939;51.426;6.972;2023-04-24T08:40:06;9.20;99.90
1878;DHT22;939;51.426;6.972;2023-04-24T08:42:37;9.20;99.90
1878;DHT22;939;51.426;6.972;2023-04-24T08:45:07;9.20;99.90
1878;DHT22;939;51.426;6.972;2023-04-24T08:47:35;9.20;99.90
1878;DHT22;939;51.426;6.972;2023-04-24T08:50:04;9.30;99.90
1878;DHT22;939;51.426;6.972;2023-04-24T08:52:33;9.40;99.90
1878;DHT22;939;51.426;6.972;2023-04-24T08:55:01;9.40;99.90
1878;DHT22;939;51.426;6.972;2023-04-24T08:57:29;9.50;99.90
1878;DHT22;939;51.426;6.972;2023-04-24T08:59:58;9.60;99.90
1878;DHT22;939;51.426;6.972;2023-04-24T09:02:26;9.60;99.90
1878;DHT22;939;51.426;6.972;2023-04-24T09:04:53;9.60;99.90
1878;DHT22;939;51.426;6.972;2023-04-24T09:07:27;9.80;99.90
1878;DHT22;939;51.426;6.972;2023-04-24T09:09:56;9.80;99.90
1878;DHT22;939;51.426;6.972;2023-04-24T09:12:23;9.80;99.90
1878;DHT22;939;51.426;6.972;2023-04-24T09:14:51;9.90;99.90
1878;DHT22;939;51.426;6.972;2023-04-24T09:17:19;9.90;99.90
1878;DHT22;939;51.426;6.972;2023-04-24T09:19:48;9.80;99.90
1878;DHT22;939;51.426;6.972;2023-04-24T09:22:16;9.80;99.90
1878;DHT22;939;51.426;6.972;2023-04-24T09:24:47;9.80;99.90
1878;DHT22;939;51.426;6.972;2023-04-24T09:27:18;9.70;99.90
1878;DHT22;939;51.426;6.972;2023-04-24T09:29:56;9.70;99.90
1878;DHT22;939;51.426;6.972;2023-04-24T09:32:23;9.70;99.90
1878;DHT22;939;51.426;6.972;2023-04-24T09:35:06;9.60;99.90
1878;DHT22;939;51.426;6.972;2023-04-24T09:37:38;9.50;99.90
1878;DHT22;939;51.426;6.972;2023-04-24T09:40:14;9.40;99.90
1878;DHT22;939;51.426;6.972;2023-04-24T09:42:44;9.40;99.90
1878;DHT22;939;51.426;6.972;2023-04-24T09:45:12;9.40;99.90
1878;DHT22;939;51.426;6.972;2023-04-24T09:47:39;9.40;99.90
1878;DHT22;939;51.426;6.972;2023-04-24T09:50:12;9.50;99.90
1878;DHT22;939;51.426;6.972;2023-04-24T09:52:43;9.40;99.90
1878;DHT22;939;51.426;6.972;2023-04-24T09:55:16;9.40;99.90
1878;DHT22;939;51.426;6.972;2023-04-24T09:57:58;9.40;99.90
1878;DHT22;939;51.426;6.972;2023-04-24T10:00:35;9.40;99.90
1878;DHT22;939;51.426;6.972;2023-04-24T10:03:04;9.30;99.90
1878;DHT22;939;51.426;6.972;2023-04-24T10:05:32;9.30;99.90
1878;DHT22;939;51.426;6.972;2023-04-24T10:08:02;9.30;99.90
1878;DHT22;939;51.426;6.972;2023-04-24T10:10:31;9.40;99.90
1878;DHT22;939;51.426;6.972;2023-04-24T10:12:59;9.50;99.90
1878;DHT22;939;51.426;6.972;2023-04-24T10:15:27;9.50;99.90
1878;DHT22;939;51.426;6.972;2023-04-24T10:17:57;9.60;99.90
1878;DHT22;939;51.426;6.972;2023-04-24T10:20:26;9.60;99.90
1878;DHT22;939;51.426;6.972;2023-04-24T10:22:55;9.60;99.90
1878;DHT22;939;51.426;6.972;2023-04-24T10:25:24;9.60;99.90
1878;DHT22;939;51.426;6.972;2023-04-24T10:28:01;9.60;99.90
1878;DHT22;939;51.426;6.972;2023-04-24T10:30:29;9.70;99.90
1878;DHT22;939;51.426;6.972;2023-04-24T10:33:00;9.70;99.90
1878;DHT22;939;51.426;6.972;2023-04-24T10:35:30;9.70;99.90
1878;DHT22;939;51.426;6.972;2023-04-24T10:38:03;9.70;99.90
1878;DHT22;939;51.426;6.972;2023-04-24T10:40:32;9.70;99.90
1878;DHT22;939;51.426;6.972;2023-04-24T10:43:02;9.60;99.90
1878;DHT22;939;51.426;6.972;2023-04-24T10:45:31;9.60;99.90
1878;DHT22;939;51.426;6.972;2023-04-24T10:48:00;9.70;99.90
1878;DHT22;939;51.426;6.972;2023-04-24T10:50:29;9.70;99.90
1878;DHT22;939;51.426;6.972;2023-04-24T10:53:06;9.70;99.90
1878;DHT22;939;51.426;6.972;2023-04-24T10:55:42;9.80;99.90
1878;DHT22;939;51.426;6.972;2023-04-24T10:58:10;9.80;99.90
1878;DHT22;939;51.426;6.972;2023-04-24T11:00:38;9.80;99.90
1878;DHT22;939;51.426;6.972;2023-04-24T11:03:06;10.00;99.90
1878;DHT22;939;51.426;6.972;2023-04-24T11:05:58;10.10;99.90
1878;DHT22;939;51.426;6.972;2023-04-24T11:08:37;10.10;99.90
1878;DHT22;939;51.426;6.972;2023-04-24T11:11:10;10.20;99.90
1878;DHT22;939;51.426;6.972;2023-04-24T11:14:05;10.10;99.90
1878;DHT22;939;51.426;6.972;2023-04-24T11:16:35;10.10;99.90
1878;DHT22;939;51.426;6.972;2023-04-24T11:19:05;10.30;99.90
1878;DHT22;939;51.426;6.972;2023-04-24T11:21:40;10.40;99.90
1878;DHT22;939;51.426;6.972;2023-04-24T11:24:27;10.60;99.90
1878;DHT22;939;51.426;6.972;2023-04-24T11:26:55;10.60;99.90
1878;DHT22;939;51.426;6.972;2023-04-24T11:29:38;10.70;99.90
1878;DHT22;939;51.426;6.972;2023-04-24T11:32:17;10.70;99.90
1878;DHT22;939;51.426;6.972;2023-04-24T11:34:50;10.70;99.90
1878;DHT22;939;51.426;6.972;2023-04-24T11:37:17;10.60;99.90
1878;DHT22;939;51.426;6.972;2023-04-24T11:39:44;10.40;99.90
1878;DHT22;939;51.426;6.972;2023-04-24T11:42:14;10.40;99.90
1878;DHT22;939;51.426;6.972;2023-04-24T11:44:46;10.30;99.90
1878;DHT22;939;51.426;6.972;2023-04-24T11:47:15;10.20;99.90
1878;DHT22;939;51.426;6.972;2023-04-24T11:49:42;10.10;99.90
1878;DHT22;939;51.426;6.972;2023-04-24T11:52:09;10.10;99.90
1878;DHT22;939;51.426;6.972;2023-04-24T11:54:37;10.20;99.90
1878;DHT22;939;51.426;6.972;2023-04-24T11:57:05;10.20;99.90
1878;DHT22;939;51.426;6.972;2023-04-24T11:59:36;10.20;99.90
1878;DHT22;939;51.426;6.972;2023-04-24T12:02:05;10.30;99.90
1878;DHT22;939;51.426;6.972;2023-04-24T12:04:40;10.40;99.90
1878;DHT22;939;51.426;6.972;2023-04-24T12:07:07;10.50;99.90
1878;DHT22;939;51.426;6.972;2023-04-24T12:09:42;10.70;99.90
1878;DHT22;939;51.426;6.972;2023-04-24T12:12:11;10.90;99.90
1878;DHT22;939;51.426;6.972;2023-04-24T12:14:47;11.00;99.90
1878;DHT22;939;51.426;6.972;2023-04-24T12:17:25;11.10;99.90
1878;DHT22;939;51.426;6.972;2023-04-24T12:20:00;11.20;99.90
1878;DHT22;939;51.426;6.972;2023-04-24T12:22:28;11.30;99.90
1878;DHT22;939;51.426;6.972;2023-04-24T12:25:02;11.30;99.90
1878;DHT22;939;51.426;6.972;2023-04-24T12:27:31;11.10;99.90
1878;DHT22;939;51.426;6.972;2023-04-24T12:30:17;11.00;99.90
1878;DHT22;939;51.426;6.972;2023-04-24T12:32:48;10.90;99.90
1878;DHT22;939;51.426;6.972;2023-04-24T12:35:19;10.80;99.90
1878;DHT22;939;51.426;6.972;2023-04-24T12:37:47;10.70;99.90
1878;DHT22;939;51.426;6.972;2023-04-24T12:40:16;10.60;99.90
1878;DHT22;939;51.426;6.972;2023-04-24T12:42:54;10.60;99.90
1878;DHT22;939;51.426;6.972;2023-04-24T12:45:21;10.70;99.90
1878;DHT22;939;51.426;6.972;2023-04-24T12:47:55;10.70;99.90
1878;DHT22;939;51.426;6.972;2023-04-24T12:50:22;10.70;99.90
1878;DHT22;939;51.426;6.972;2023-04-24T12:52:52;10.70;99.90
1878;DHT22;939;51.426;6.972;2023-04-24T12:55:30;10.70;99.90
1878;DHT22;939;51.426;6.972;2023-04-24T12:58:16;10.70;99.90
1878;DHT22;939;51.426;6.972;2023-04-24T13:00:44;10.80;99.90
1878;DHT22;939;51.426;6.972;2023-04-24T13:03:24;10.90;99.90
1878;DHT22;939;51.426;6.972;2023-04-24T13:05:52;11.00;99.90
1878;DHT22;939;51.426;6.972;2023-04-24T13:08:19;11.10;99.90
1878;DHT22;939;51.426;6.972;2023-04-24T13:10:52;11.20;99.90
1878;DHT22;939;51.426;6.972;2023-04-24T13:13:23;11.30;99.90
1878;DHT22;939;51.426;6.972;2023-04-24T13:15:52;11.30;99.90
1878;DHT22;939;51.426;6.972;2023-04-24T13:18:31;11.30;99.90
1878;DHT22;939;51.426;6.972;2023-04-24T13:21:04;11.10;99.90
1878;DHT22;939;51.426;6.972;2023-04-24T13:23:33;11.00;99.90
1878;DHT22;939;51.426;6.972;2023-04-24T13:26:00;10.80;99.90
1878;DHT22;939;51.426;6.972;2023-04-24T13:28:29;11.00;99.90
1878;DHT22;939;51.426;6.972;2023-04-24T13:30:56;10.90;99.90
1878;DHT22;939;51.426;6.972;2023-04-24T13:33:27;10.80;99.90
1878;DHT22;939;51.426;6.972;2023-04-24T13:35:54;10.90;99.90
1878;DHT22;939;51.426;6.972;2023-04-24T13:38:21;10.90;99.90
1878;DHT22;939;51.426;6.972;2023-04-24T13:40:48;10.90;99.90
1878;DHT22;939;51.426;6.972;2023-04-24T13:43:17;11.00;99.90
1878;DHT22;939;51.426;6.972;2023-04-24T13:45:44;11.00;99.90
1878;DHT22;939;51.426;6.972;2023-04-24T13:48:11;10.90;99.90
1878;DHT22;939;51.426;6.972;2023-04-24T13:50:45;10.90;99.90
1878;DHT22;939;51.426;6.972;2023-04-24T13:53:14;11.00;99.90
1878;DHT22;939;51.426;6.972;2023-04-24T13:55:44;11.10;99.90
1878;DHT22;939;51.426;6.972;2023-04-24T13:58:16;11.10;99.90
1878;DHT22;939;51.426;6.972;2023-04-24T14:00:44;11.10;99.90
1878;DHT22;939;51.426;6.972;2023-04-24T14:03:16;11.20;99.90
1878;DHT22;939;51.426;6.972;2023-04-24T14:05:46;11.20;99.90
1878;DHT22;939;51.426;6.972;2023-04-24T14:08:14;11.20;99.90
1878;DHT22;939;51.426;6.972;2023-04-24T14:10:44;11.40;99.90
1878;DHT22;939;51.426;6.972;2023-04-24T14:13:12;11.40;99.90
1878;DHT22;939;51.426;6.972;2023-04-24T14:15:44;11.50;99.90
1878;DHT22;939;51.426;6.972;2023-04-24T14:18:14;11.60;99.90
1878;DHT22;939;51.426;6.972;2023-04-24T14:20:41;11.70;99.90
1878;DHT22;939;51.426;6.972;2023-04-24T14:23:12;11.80;99.90
1878;DHT22;939;51.426;6.972;2023-04-24T14:25:39;11.70;99.90
1878;DHT22;939;51.426;6.972;2023-04-24T14:28:06;11.70;99.90
1878;DHT22;939;51.426;6.972;2023-04-24T14:30:33;11.80;99.90
1878;DHT22;939;51.426;6.972;2023-04-24T14:33:03;11.80;99.90
1878;DHT22;939;51.426;6.972;2023-04-24T14:35:33;11.90;99.90
1878;DHT22;939;51.426;6.972;2023-04-24T14:38:01;11.90;99.90
1878;DHT22;939;51.426;6.972;2023-04-24T14:40:31;11.80;99.90
1878;DHT22;939;51.426;6.972;2023-04-24T14:42:59;11.80;99.90
1878;DHT22;939;51.426;6.972;2023-04-24T14:45:27;11.70;99.90
1878;DHT22;939;51.426;6.972;2023-04-24T14:47:55;11.60;99.90
1878;DHT22;939;51.426;6.972;2023-04-24T14:50:23;11.50;99.90
1878;DHT22;939;51.426;6.972;2023-04-24T14:52:54;11.40;99.90
1878;DHT22;939;51.426;6.972;2023-04-24T14:55:23;11.30;99.90
1878;DHT22;939;51.426;6.972;2023-04-24T14:57:57;11.20;99.90
1878;DHT22;939;51.426;6.972;2023-04-24T15:00:24;11.00;99.90
1878;DHT22;939;51.426;6.972;2023-04-24T15:02:51;11.00;99.90
1878;DHT22;939;51.426;6.972;2023-04-24T15:05:18;10.90;99.90
1878;DHT22;939;51.426;6.972;2023-04-24T15:07:48;10.80;99.90
1878;DHT22;939;51.426;6.972;2023-04-24T15:10:15;10.80;99.90
1878;DHT22;939;51.426;6.972;2023-04-24T15:12:43;10.70;99.90
1878;DHT22;939;51.426;6.972;2023-04-24T15:15:12;10.70;99.90
1878;DHT22;939;51.426;6.972;2023-04-24T15:17:39;10.70;99.90
1878;DHT22;939;51.426;6.972;2023-04-24T15:20:07;10.90;99.90
1878;DHT22;939;51.426;6.972;2023-04-24T15:22:35;11.00;99.90
1878;DHT22;939;51.426;6.972;2023-04-24T15:25:02;11.10;99.90
1878;DHT22;939;51.426;6.972;2023-04-24T15:27:45;11.10;99.90
1878;DHT22;939;51.426;6.972;2023-04-24T15:30:15;11.30;99.90
1878;DHT22;939;51.426;6.972;2023-04-24T15:32:42;11.40;99.90
1878;DHT22;939;51.426;6.972;2023-04-24T15:35:14;11.40;99.90
1878;DHT22;939;51.426;6.972;2023-04-24T15:37:49;11.50;99.90
1878;DHT22;939;51.426;6.972;2023-04-24T15:40:50;11.60;99.90
1878;DHT22;939;51.426;6.972;2023-04-24T15:43:17;12.00;99.90
1878;DHT22;939;51.426;6.972;2023-04-24T15:45:45;12.30;99.90
1878;DHT22;939;51.426;6.972;2023-04-24T15:48:18;12.20;99.90
1878;DHT22;939;51.426;6.972;2023-04-24T15:50:45;12.20;99.90
1878;DHT22;939;51.426;6.972;2023-04-24T15:53:19;12.20;99.90
1878;DHT22;939;51.426;6.972;2023-04-24T16:02:38;11.90;99.90
1878;DHT22;939;51.426;6.972;2023-04-24T16:05:12;11.70;99.90
1878;DHT22;939;51.426;6.972;2023-04-24T16:07:39;11.60;99.90
1878;DHT22;939;51.426;6.972;2023-04-24T16:10:13;11.50;99.90
1878;DHT22;939;51.426;6.972;2023-04-24T16:12:58;11.40;99.90
1878;DHT22;939;51.426;6.972;2023-04-24T16:15:58;11.40;99.90
1878;DHT22;939;51.426;6.972;2023-04-24T16:18:45;11.50;99.90
1878;DHT22;939;51.426;6.972;2023-04-24T16:21:25;11.70;99.90
1878;DHT22;939;51.426;6.972;2023-04-24T16:23:54;12.00;99.90
1878;DHT22;939;51.426;6.972;2023-04-24T16:26:28;12.10;99.90
1878;DHT22;939;51.426;6.972;2023-04-24T16:28:55;12.10;99.90
1878;DHT22;939;51.426;6.972;2023-04-24T16:31:22;12.20;99.90
1878;DHT22;939;51.426;6.972;2023-04-24T16:33:51;12.20;99.90
1878;DHT22;939;51.426;6.972;2023-04-24T16:36:18;12.20;99.90
1878;DHT22;939;51.426;6.972;2023-04-24T16:39:03;12.10;99.90
1878;DHT22;939;51.426;6.972;2023-04-24T16:41:30;12.20;99.90
1878;DHT22;939;51.426;6.972;2023-04-24T16:43:57;12.10;99.90